createdAt,value
2019-01-11T00:01:08.443Z,34.80
2019-01-11T00:03:56.172Z,35.10
2019-01-11T00:06:44.228Z,34.80
2019-01-11T00:09:31.857Z,34.80
2019-01-11T00:12:19.887Z,35.00
2019-01-11T00:15:07.501Z,35.00
2019-01-11T00:17:55.340Z,35.20
2019-01-11T00:20:42.775Z,34.80
2019-01-11T00:23:30.647Z,35.00
2019-01-11T00:26:17.963Z,34.70
2019-01-11T00:29:05.914Z,35.20
2019-01-11T00:31:53.870Z,35.00
2019-01-11T00:34:47.288Z,35.10
2019-01-11T00:37:34.530Z,35.10
2019-01-11T00:40:21.997Z,35.10
2019-01-11T00:43:14.977Z,35.20
2019-01-11T00:45:58.519Z,35.20
2019-01-11T00:48:46.198Z,35.20
2019-01-11T00:51:33.547Z,35.30
2019-01-11T00:54:21.916Z,35.10
2019-01-11T00:57:10.569Z,35.20
2019-01-11T00:59:58.423Z,35.20
2019-01-11T01:02:46.069Z,35.20
2019-01-11T01:05:33.452Z,35.20
2019-01-11T01:08:21.413Z,35.20
2019-01-11T01:11:08.855Z,35.20
2019-01-11T01:13:56.666Z,35.30
2019-01-11T01:16:45.174Z,35.30
2019-01-11T01:19:33.131Z,35.30
2019-01-11T01:22:20.611Z,35.40
2019-01-11T01:25:09.467Z,35.40
2019-01-11T01:27:57.095Z,35.40
2019-01-11T01:30:45.042Z,35.40
2019-01-11T01:33:32.208Z,35.40
2019-01-11T01:36:19.451Z,35.40
2019-01-11T01:39:08.258Z,35.50
2019-01-11T01:41:55.763Z,35.40
2019-01-11T01:44:43.235Z,35.50
2019-01-11T01:47:31.005Z,35.50
2019-01-11T01:50:18.197Z,34.50
2019-01-11T01:53:06.192Z,34.30
2019-01-11T01:55:53.466Z,34.50
2019-01-11T01:58:40.978Z,34.00
2019-01-11T02:01:28.576Z,33.80
2019-01-11T02:04:16.051Z,33.60
2019-01-11T02:07:03.855Z,33.10
2019-01-11T02:09:51.352Z,33.10
2019-01-11T02:12:38.974Z,32.60
2019-01-11T02:15:27.636Z,32.70
2019-01-11T02:18:14.941Z,32.60
2019-01-11T02:21:02.535Z,32.10
2019-01-11T02:23:49.865Z,32.30
2019-01-11T02:26:37.461Z,32.30
2019-01-11T02:29:25.103Z,32.70
2019-01-11T02:32:12.720Z,32.90
2019-01-11T02:35:00.658Z,32.80
2019-01-11T02:37:48.492Z,33.00
2019-01-11T02:40:37.312Z,33.00
2019-01-11T02:43:25.111Z,33.00
2019-01-11T02:46:12.997Z,33.00
2019-01-11T02:49:00.420Z,33.00
2019-01-11T02:51:47.716Z,33.30
2019-01-11T02:54:36.463Z,33.30
2019-01-11T02:57:24.329Z,33.00
2019-01-11T03:00:20.298Z,32.80
2019-01-11T03:03:08.202Z,33.40
2019-01-11T03:05:55.818Z,33.60
2019-01-11T03:08:46.660Z,34.10
2019-01-11T03:11:34.559Z,34.50
2019-01-11T03:14:22.528Z,34.70
2019-01-11T03:17:10.841Z,34.80
2019-01-11T03:19:59.325Z,35.00
2019-01-11T03:22:46.721Z,35.30
2019-01-11T03:25:34.209Z,35.30
2019-01-11T03:28:21.979Z,35.60
2019-01-11T03:31:27.142Z,35.70
2019-01-11T03:34:14.592Z,35.70
2019-01-11T03:37:02.509Z,35.70
2019-01-11T03:39:50.060Z,35.70
2019-01-11T03:42:37.132Z,35.70
2019-01-11T03:45:27.376Z,35.70
2019-01-11T03:48:14.691Z,35.80
2019-01-11T03:51:02.175Z,35.80
2019-01-11T03:53:49.767Z,36.40
2019-01-11T03:56:37.549Z,35.80
2019-01-11T03:59:24.910Z,35.80
2019-01-11T04:02:13.889Z,35.80
2019-01-11T04:05:04.232Z,35.80
2019-01-11T04:07:51.884Z,35.80
2019-01-11T04:10:39.390Z,35.80
2019-01-11T04:13:30.486Z,35.80
2019-01-11T04:16:15.606Z,35.80
2019-01-11T04:19:10.797Z,35.80
2019-01-11T04:22:18.567Z,35.80
2019-01-11T04:25:37.801Z,35.80
2019-01-11T04:28:25.188Z,35.80
2019-01-11T04:31:12.909Z,36.40
2019-01-11T04:34:00.699Z,35.80
2019-01-11T04:36:48.323Z,35.90
2019-01-11T04:39:35.534Z,36.00
2019-01-11T04:42:23.244Z,36.00
2019-01-11T04:45:10.867Z,35.90
2019-01-11T04:47:58.510Z,36.00
2019-01-11T04:50:46.355Z,35.90
2019-01-11T04:53:34.173Z,36.00
2019-01-11T04:56:21.686Z,35.90
2019-01-11T04:59:09.222Z,36.00
2019-01-11T05:01:57.531Z,36.00
2019-01-11T05:04:46.851Z,35.90
2019-01-11T05:07:34.479Z,36.00
2019-01-11T05:10:22.281Z,35.50
2019-01-11T05:13:28.043Z,35.50
2019-01-11T05:16:15.649Z,35.30
2019-01-11T05:19:03.057Z,35.00
2019-01-11T05:21:50.431Z,35.30
2019-01-11T05:24:37.847Z,35.50
2019-01-11T05:27:25.780Z,35.70
2019-01-11T05:30:18.550Z,36.20
2019-01-11T05:33:06.017Z,35.90
2019-01-11T05:35:54.011Z,36.30
2019-01-11T05:38:42.097Z,36.00
2019-01-11T05:41:29.726Z,36.20
2019-01-11T05:44:17.454Z,36.20
2019-01-11T05:47:05.289Z,36.30
2019-01-11T05:49:52.862Z,36.30
2019-01-11T05:52:40.722Z,36.30
2019-01-11T05:55:47.080Z,36.30
2019-01-11T05:58:38.491Z,36.80
2019-01-11T06:01:45.415Z,37.10
2019-01-11T06:04:51.144Z,37.20
2019-01-11T06:07:53.312Z,37.20
2019-01-11T06:10:41.024Z,37.40
2019-01-11T06:13:28.654Z,37.40
2019-01-11T06:16:16.208Z,37.50
2019-01-11T06:19:04.101Z,37.60
2019-01-11T06:21:51.925Z,37.70
2019-01-11T06:24:39.381Z,37.80
2019-01-11T06:27:27.395Z,37.80
2019-01-11T06:30:15.758Z,37.80
2019-01-11T06:33:05.025Z,37.80
2019-01-11T06:35:53.076Z,37.90
2019-01-11T06:38:40.557Z,37.90
2019-01-11T06:41:36.843Z,37.90
2019-01-11T06:44:24.425Z,37.90
2019-01-11T06:47:12.166Z,37.90
2019-01-11T06:50:01.888Z,37.90
2019-01-11T06:52:52.423Z,37.90
2019-01-11T06:55:39.941Z,38.00
2019-01-11T06:58:29.927Z,37.90
2019-01-11T07:01:17.466Z,37.80
2019-01-11T07:04:05.595Z,37.90
2019-01-11T07:06:53.442Z,37.90
2019-01-11T07:09:40.935Z,38.00
2019-01-11T07:12:28.447Z,38.00
2019-01-11T07:15:16.455Z,38.00
2019-01-11T07:18:04.235Z,38.00
2019-01-11T07:20:58.211Z,38.10
2019-01-11T07:23:47.677Z,38.20
2019-01-11T07:26:35.011Z,38.30
2019-01-11T07:29:22.316Z,38.30
2019-01-11T07:32:12.223Z,38.40
2019-01-11T07:34:59.891Z,38.40
2019-01-11T07:37:47.657Z,38.50
2019-01-11T07:40:35.570Z,38.60
2019-01-11T07:43:23.191Z,38.60
2019-01-11T07:46:10.612Z,38.70
2019-01-11T07:48:58.476Z,38.80
2019-01-11T07:51:46.108Z,38.90
2019-01-11T07:54:34.022Z,39.00
2019-01-11T07:57:21.478Z,39.00
2019-01-11T08:00:09.303Z,39.10
2019-01-11T08:02:58.081Z,39.20
2019-01-11T08:05:45.992Z,39.10
2019-01-11T08:08:33.890Z,39.30
2019-01-11T08:11:21.293Z,39.40
2019-01-11T08:14:09.637Z,39.40
2019-01-11T08:16:58.348Z,39.40
2019-01-11T08:19:49.053Z,39.60
2019-01-11T08:22:43.807Z,39.70
2019-01-11T08:25:31.100Z,39.70
2019-01-11T08:28:18.650Z,39.80
2019-01-11T08:31:06.138Z,39.80
2019-01-11T08:33:53.999Z,39.80
2019-01-11T08:36:41.803Z,39.90
2019-01-11T08:39:32.503Z,40.00
2019-01-11T08:42:18.365Z,40.00
2019-01-11T08:45:07.500Z,40.10
2019-01-11T08:47:54.895Z,40.10
2019-01-11T08:50:42.564Z,40.10
2019-01-11T08:53:30.109Z,40.10
2019-01-11T08:56:17.946Z,40.20
2019-01-11T08:59:05.487Z,40.30
2019-01-11T09:01:53.332Z,40.30
2019-01-11T09:04:40.597Z,40.20
2019-01-11T09:07:29.227Z,40.60
2019-01-11T09:10:22.719Z,40.30
2019-01-11T09:13:05.884Z,40.30
2019-01-11T09:15:53.442Z,40.40
2019-01-11T09:18:46.725Z,40.60
2019-01-11T09:21:41.444Z,40.50
2019-01-11T09:24:25.145Z,40.70
2019-01-11T09:27:12.680Z,40.70
2019-01-11T09:30:00.293Z,40.80
2019-01-11T09:32:47.892Z,40.80
2019-01-11T09:35:35.589Z,40.90
2019-01-11T09:38:23.234Z,41.00
2019-01-11T09:41:10.940Z,40.90
2019-01-11T09:43:58.806Z,41.00
2019-01-11T09:46:46.748Z,41.20
2019-01-11T09:49:34.457Z,41.30
2019-01-11T09:52:25.412Z,41.40
2019-01-11T09:55:13.262Z,41.40
2019-01-11T09:58:00.771Z,41.40
2019-01-11T10:00:48.928Z,41.50
2019-01-11T10:03:36.700Z,41.60
2019-01-11T10:06:24.425Z,41.70
2019-01-11T10:09:12.290Z,41.90
2019-01-11T10:12:00.083Z,42.10
2019-01-11T10:14:47.722Z,42.10
2019-01-11T10:17:35.483Z,42.10
2019-01-11T10:20:25.319Z,42.20
2019-01-11T10:23:12.796Z,42.20
2019-01-11T10:26:00.196Z,42.30
2019-01-11T10:28:48.232Z,42.50
2019-01-11T10:31:35.692Z,42.50
2019-01-11T10:34:23.204Z,42.30
2019-01-11T10:37:10.859Z,42.20
2019-01-11T10:39:58.883Z,42.40
2019-01-11T10:42:46.499Z,42.40
2019-01-11T10:45:34.478Z,42.50
2019-01-11T10:48:22.005Z,42.60
2019-01-11T10:51:09.788Z,42.50
2019-01-11T10:53:57.329Z,42.50
2019-01-11T10:56:44.900Z,42.80
2019-01-11T10:59:32.507Z,42.70
2019-01-11T11:02:20.503Z,42.80
2019-01-11T11:05:07.892Z,42.80
2019-01-11T11:07:55.197Z,42.80
2019-01-11T11:10:42.692Z,43.00
2019-01-11T11:13:30.389Z,42.90
2019-01-11T11:16:17.700Z,43.10
2019-01-11T11:19:05.090Z,43.10
2019-01-11T11:21:52.606Z,43.10
2019-01-11T11:24:42.105Z,43.30
2019-01-11T11:27:29.823Z,43.30
2019-01-11T11:30:20.253Z,43.20
2019-01-11T11:33:07.693Z,43.20
2019-01-11T11:35:55.414Z,43.30
2019-01-11T11:38:42.950Z,43.30
2019-01-11T11:41:30.508Z,43.40
2019-01-11T11:44:18.557Z,43.40
2019-01-11T11:47:06.567Z,43.60
2019-01-11T11:49:54.110Z,43.70
2019-01-11T11:52:41.751Z,43.70
2019-01-11T11:55:29.688Z,43.60
2019-01-11T11:58:17.571Z,43.60
2019-01-11T12:01:07.308Z,43.60
2019-01-11T12:03:56.757Z,43.70
2019-01-11T12:06:44.511Z,43.80
2019-01-11T12:09:31.706Z,43.90
2019-01-11T12:12:19.462Z,43.90
2019-01-11T12:15:13.196Z,44.10
2019-01-11T12:18:00.719Z,44.20
2019-01-11T12:20:48.599Z,44.40
2019-01-11T12:23:35.911Z,44.50
2019-01-11T12:26:24.044Z,44.60
2019-01-11T12:29:13.047Z,44.70
2019-01-11T12:32:00.512Z,44.80
2019-01-11T12:34:47.824Z,45.00
2019-01-11T12:37:35.515Z,45.00
2019-01-11T12:40:23.063Z,45.00
2019-01-11T12:43:12.424Z,45.20
2019-01-11T12:45:59.955Z,45.20
2019-01-11T12:48:47.514Z,45.20
2019-01-11T12:51:35.095Z,45.20
2019-01-11T12:54:22.485Z,45.30
2019-01-11T12:57:10.340Z,45.70
2019-01-11T12:59:58.753Z,45.30
2019-01-11T13:02:46.668Z,45.30
2019-01-11T13:05:36.417Z,45.30
2019-01-11T13:08:23.481Z,45.30
2019-01-11T13:11:11.528Z,45.40
2019-01-11T13:13:59.058Z,45.40
2019-01-11T13:16:46.337Z,45.50
2019-01-11T13:19:34.377Z,45.50
2019-01-11T13:22:29.655Z,45.50
2019-01-11T13:25:18.975Z,45.60
2019-01-11T13:28:15.152Z,45.60
2019-01-11T13:31:02.604Z,45.70
2019-01-11T13:33:50.676Z,45.90
2019-01-11T13:36:38.843Z,45.90
2019-01-11T13:39:26.730Z,45.70
2019-01-11T13:42:14.180Z,46.10
2019-01-11T13:45:01.822Z,46.10
2019-01-11T13:47:50.163Z,45.90
2019-01-11T13:50:43.357Z,45.70
2019-01-11T13:53:33.502Z,45.60
2019-01-11T13:56:21.480Z,45.30
2019-01-11T13:59:09.373Z,45.00
2019-01-11T14:01:56.554Z,45.00
2019-01-11T14:04:44.064Z,44.90
2019-01-11T14:07:31.782Z,44.40
2019-01-11T14:10:19.546Z,44.30
2019-01-11T14:13:06.984Z,42.50
2019-01-11T14:15:56.936Z,42.80
2019-01-11T14:18:44.736Z,42.20
2019-01-11T14:21:32.464Z,42.00
2019-01-11T14:24:20.227Z,41.90
2019-01-11T14:27:08.916Z,40.10
2019-01-11T14:29:56.469Z,40.00
2019-01-11T14:32:43.735Z,40.00
2019-01-11T14:35:31.548Z,40.00
2019-01-11T14:38:22.134Z,40.00
2019-01-11T14:41:12.410Z,40.00
2019-01-11T14:44:00.314Z,40.80
2019-01-11T14:46:47.596Z,41.40
2019-01-11T14:49:35.241Z,40.40
2019-01-11T14:52:26.492Z,40.00
2019-01-11T14:55:32.648Z,40.00
2019-01-11T14:58:28.849Z,40.00
2019-01-11T15:01:16.428Z,40.00
2019-01-11T15:04:04.552Z,41.20
2019-01-11T15:06:53.002Z,41.80
2019-01-11T15:09:40.611Z,41.80
2019-01-11T15:12:28.212Z,41.80
2019-01-11T15:15:16.903Z,42.30
2019-01-11T15:18:04.671Z,42.80
2019-01-11T15:20:52.385Z,43.60
2019-01-11T15:23:39.873Z,43.90
2019-01-11T15:26:27.298Z,44.50
2019-01-11T15:29:14.640Z,45.00
2019-01-11T15:32:03.613Z,45.10
2019-01-11T15:34:53.654Z,44.80
2019-01-11T15:37:41.472Z,44.80
2019-01-11T15:40:36.259Z,44.50
2019-01-11T15:43:19.515Z,44.30
2019-01-11T15:46:07.591Z,44.00
2019-01-11T15:48:55.401Z,44.30
2019-01-11T15:51:42.596Z,44.20
2019-01-11T15:54:30.662Z,44.20
2019-01-11T15:57:24.487Z,44.70
2019-01-11T16:00:16.244Z,44.20
2019-01-11T16:03:03.996Z,44.60
2019-01-11T16:06:18.044Z,44.60
2019-01-11T16:09:59.246Z,44.40
2019-01-11T16:12:56.121Z,44.50
2019-01-11T16:16:02.655Z,44.00
2019-01-11T16:18:51.683Z,44.00
2019-01-11T16:21:38.916Z,44.00
2019-01-11T16:24:26.152Z,43.90
2019-01-11T16:27:15.833Z,44.00
2019-01-11T16:30:05.231Z,44.40
2019-01-11T16:32:52.740Z,44.30
2019-01-11T16:35:41.763Z,44.20
2019-01-11T16:38:29.632Z,44.20
2019-01-11T16:41:17.454Z,44.10
2019-01-11T16:44:06.440Z,44.00
2019-01-11T16:46:54.124Z,44.00
2019-01-11T16:49:42.120Z,43.90
2019-01-11T16:52:30.153Z,43.80
2019-01-11T16:55:17.892Z,43.50
2019-01-11T16:58:05.648Z,43.50
2019-01-11T17:00:56.790Z,42.70
2019-01-11T17:03:44.458Z,41.90
2019-01-11T17:06:32.225Z,41.40
2019-01-11T17:09:19.951Z,41.00
2019-01-11T17:12:07.461Z,39.50
2019-01-11T17:14:55.468Z,39.60
2019-01-11T17:17:43.051Z,37.90
2019-01-11T17:20:30.419Z,37.20
2019-01-11T17:23:18.140Z,37.00
2019-01-11T17:26:05.465Z,35.70
2019-01-11T17:28:53.265Z,34.10
2019-01-11T17:31:41.061Z,33.30
2019-01-11T17:34:28.845Z,32.20
2019-01-11T17:37:16.035Z,30.50
2019-01-11T17:40:04.630Z,27.60
2019-01-11T17:42:52.284Z,26.60
2019-01-11T17:45:40.248Z,26.20
2019-01-11T17:48:27.968Z,23.70
2019-01-11T17:51:15.388Z,24.00
2019-01-11T17:54:02.567Z,24.30
2019-01-11T17:56:50.055Z,23.70
2019-01-11T17:59:37.386Z,23.70
2019-01-11T18:02:26.167Z,23.60
2019-01-11T18:05:15.965Z,22.20
2019-01-11T18:08:04.250Z,21.80
2019-01-11T18:10:51.793Z,22.00
2019-01-11T18:13:39.659Z,22.00
2019-01-11T18:16:27.695Z,19.90
2019-01-11T18:19:15.564Z,20.60
2019-01-11T18:22:04.810Z,21.10
2019-01-11T18:24:53.596Z,21.40
2019-01-11T18:27:41.159Z,22.50
2019-01-11T18:30:28.865Z,23.50
2019-01-11T18:33:16.435Z,23.40
2019-01-11T18:36:03.755Z,24.10
2019-01-11T18:38:51.488Z,23.40
2019-01-11T18:41:39.401Z,23.40
2019-01-11T18:44:26.555Z,23.40
2019-01-11T18:47:13.817Z,23.30
2019-01-11T18:50:02.816Z,23.80
2019-01-11T18:52:50.884Z,23.50
2019-01-11T18:55:38.480Z,22.70
2019-01-11T18:58:25.889Z,21.30
2019-01-11T19:01:13.414Z,20.80
2019-01-11T19:04:01.353Z,19.70
2019-01-11T19:06:48.759Z,19.90
2019-01-11T19:09:35.817Z,18.50
2019-01-11T19:12:24.669Z,17.90
2019-01-11T19:15:14.568Z,18.70
2019-01-11T19:18:01.679Z,18.90
2019-01-11T19:20:49.644Z,18.60
2019-01-11T19:23:37.612Z,18.80
2019-01-11T19:26:25.216Z,18.60
2019-01-11T19:29:13.780Z,17.90
2019-01-11T19:32:01.364Z,18.80
2019-01-11T19:34:49.485Z,17.30
2019-01-11T19:37:37.204Z,15.90
2019-01-11T19:40:24.566Z,16.20
2019-01-11T19:43:12.017Z,15.40
2019-01-11T19:45:59.442Z,16.20
2019-01-11T19:48:47.182Z,15.70
2019-01-11T19:51:34.856Z,15.90
2019-01-11T19:54:22.475Z,16.20
2019-01-11T19:57:10.239Z,14.00
2019-01-11T19:59:58.031Z,14.90
2019-01-11T20:02:45.638Z,16.20
2019-01-11T20:05:33.486Z,16.20
2019-01-11T20:08:21.761Z,16.50
2019-01-11T20:11:09.511Z,17.00
2019-01-11T20:13:56.815Z,18.20
2019-01-11T20:16:48.105Z,17.50
2019-01-11T20:19:39.805Z,18.60
2019-01-11T20:22:27.532Z,18.40
2019-01-11T20:25:17.532Z,17.50
2019-01-11T20:28:05.428Z,16.90
2019-01-11T20:30:53.183Z,17.50
2019-01-11T20:33:40.852Z,16.90
2019-01-11T20:36:33.131Z,17.00
2019-01-11T20:39:20.872Z,17.00
2019-01-11T20:42:08.333Z,17.10
2019-01-11T20:44:58.583Z,17.50
2019-01-11T20:47:46.296Z,16.20
2019-01-11T20:50:33.750Z,16.10
2019-01-11T20:53:21.347Z,16.10
2019-01-11T20:56:09.523Z,16.10
2019-01-11T20:58:57.305Z,16.20
2019-01-11T21:01:46.483Z,15.70
2019-01-11T21:04:35.149Z,16.10
2019-01-11T21:07:24.159Z,16.10
2019-01-11T21:10:12.088Z,16.10
2019-01-11T21:13:03.102Z,15.70
2019-01-11T21:15:50.982Z,14.90
2019-01-11T21:18:38.644Z,14.90
2019-01-11T21:21:28.429Z,13.00
2019-01-11T21:24:15.746Z,11.40
2019-01-11T21:27:03.261Z,10.90
2019-01-11T21:29:52.869Z,10.90
2019-01-11T21:32:40.075Z,11.30
2019-01-11T21:35:27.690Z,11.40
2019-01-11T21:38:15.162Z,11.40
2019-01-11T21:41:05.521Z,12.70
2019-01-11T21:43:53.266Z,12.50
2019-01-11T21:46:42.504Z,13.00
2019-01-11T21:49:30.112Z,13.00
2019-01-11T21:52:18.063Z,13.10
2019-01-11T21:55:06.450Z,14.00
2019-01-11T21:57:57.435Z,14.30
2019-01-11T22:00:46.831Z,14.10
2019-01-11T22:03:34.331Z,14.40
2019-01-11T22:06:22.846Z,14.50
2019-01-11T22:09:11.099Z,15.60
2019-01-11T22:11:59.457Z,16.10
2019-01-11T22:14:47.194Z,15.80
2019-01-11T22:17:34.493Z,16.10
2019-01-11T22:20:23.344Z,16.10
2019-01-11T22:23:13.229Z,16.20
2019-01-11T22:26:02.418Z,16.20
2019-01-11T22:28:49.682Z,16.10
2019-01-11T22:31:37.730Z,15.30
2019-01-11T22:34:25.795Z,15.40
2019-01-11T22:37:13.613Z,14.70
2019-01-11T22:40:02.226Z,14.90
2019-01-11T22:42:53.160Z,13.80
2019-01-11T22:45:41.150Z,13.40
2019-01-11T22:48:28.878Z,13.40
2019-01-11T22:51:16.668Z,13.30
2019-01-11T22:54:10.320Z,13.30
2019-01-11T22:56:53.980Z,13.30
2019-01-11T22:59:42.651Z,11.90
2019-01-11T23:02:48.045Z,8.60
2019-01-11T23:05:36.276Z,8.60
2019-01-11T23:08:23.768Z,7.60
2019-01-11T23:11:39.957Z,7.40
2019-01-11T23:14:27.447Z,7.60
2019-01-11T23:17:43.134Z,6.40
2019-01-11T23:20:31.205Z,7.00
2019-01-11T23:23:18.508Z,7.80
2019-01-11T23:26:06.092Z,8.30
2019-01-11T23:28:54.076Z,9.20
2019-01-11T23:31:42.939Z,9.90
2019-01-11T23:34:30.655Z,10.10
2019-01-11T23:37:18.509Z,10.40
2019-01-11T23:40:12.350Z,10.00
2019-01-11T23:43:01.187Z,9.80
2019-01-11T23:45:48.724Z,9.40
2019-01-11T23:48:36.189Z,8.60
2019-01-11T23:51:23.483Z,8.60
2019-01-11T23:54:11.023Z,8.60
2019-01-11T23:56:58.465Z,8.00
2019-01-11T23:59:46.091Z,8.60
